sensor_id;sensor_type;location;lat;lon;timestamp;temperature;humidity
64705;DHT22;51131;52.298;13.686;2022-07-11T00:00:53;21.30;67.60
64705;DHT22;51131;52.298;13.686;2022-07-11T00:03:19;21.30;67.70
64705;DHT22;51131;52.298;13.686;2022-07-11T00:05:46;21.30;67.60
64705;DHT22;51131;52.298;13.686;2022-07-11T00:08:13;21.20;67.50
64705;DHT22;51131;52.298;13.686;2022-07-11T00:10:39;21.30;67.70
64705;DHT22;51131;52.298;13.686;2022-07-11T00:13:07;21.20;67.60
64705;DHT22;51131;52.298;13.686;2022-07-11T00:15:33;21.20;67.60
64705;DHT22;51131;52.298;13.686;2022-07-11T00:18:01;21.20;67.60
64705;DHT22;51131;52.298;13.686;2022-07-11T00:20:27;21.20;67.70
64705;DHT22;51131;52.298;13.686;2022-07-11T00:22:54;21.30;67.80
64705;DHT22;51131;52.298;13.686;2022-07-11T00:25:21;21.30;67.70
64705;DHT22;51131;52.298;13.686;2022-07-11T00:27:48;21.30;67.60
64705;DHT22;51131;52.298;13.686;2022-07-11T00:30:17;21.30;67.60
64705;DHT22;51131;52.298;13.686;2022-07-11T00:32:43;21.30;67.60
64705;DHT22;51131;52.298;13.686;2022-07-11T00:35:10;21.30;67.50
64705;DHT22;51131;52.298;13.686;2022-07-11T00:37:38;21.90;68.20
64705;DHT22;51131;52.298;13.686;2022-07-11T00:40:05;21.30;67.50
64705;DHT22;51131;52.298;13.686;2022-07-11T00:42:32;21.30;67.60
64705;DHT22;51131;52.298;13.686;2022-07-11T00:44:58;21.30;67.50
64705;DHT22;51131;52.298;13.686;2022-07-11T00:47:25;21.30;67.60
64705;DHT22;51131;52.298;13.686;2022-07-11T00:49:52;21.20;67.50
64705;DHT22;51131;52.298;13.686;2022-07-11T00:52:19;21.20;67.50
64705;DHT22;51131;52.298;13.686;2022-07-11T00:54:46;21.20;67.50
64705;DHT22;51131;52.298;13.686;2022-07-11T00:57:13;21.20;67.60
64705;DHT22;51131;52.298;13.686;2022-07-11T00:59:40;21.20;67.60
64705;DHT22;51131;52.298;13.686;2022-07-11T01:02:06;21.20;67.70
64705;DHT22;51131;52.298;13.686;2022-07-11T01:04:33;21.30;67.70
64705;DHT22;51131;52.298;13.686;2022-07-11T01:07:01;21.30;67.60
64705;DHT22;51131;52.298;13.686;2022-07-11T01:09:28;21.30;67.60
64705;DHT22;51131;52.298;13.686;2022-07-11T01:11:55;21.30;67.60
64705;DHT22;51131;52.298;13.686;2022-07-11T01:14:22;21.30;67.60
64705;DHT22;51131;52.298;13.686;2022-07-11T01:16:48;21.30;67.50
64705;DHT22;51131;52.298;13.686;2022-07-11T01:19:17;22.20;68.40
64705;DHT22;51131;52.298;13.686;2022-07-11T01:21:46;21.30;67.60
64705;DHT22;51131;52.298;13.686;2022-07-11T01:24:14;21.30;67.60
64705;DHT22;51131;52.298;13.686;2022-07-11T01:26:48;21.30;67.50
64705;DHT22;51131;52.298;13.686;2022-07-11T01:29:16;21.30;67.60
64705;DHT22;51131;52.298;13.686;2022-07-11T01:31:43;21.20;67.50
64705;DHT22;51131;52.298;13.686;2022-07-11T01:34:10;21.20;67.50
64705;DHT22;51131;52.298;13.686;2022-07-11T01:36:37;21.20;67.50
64705;DHT22;51131;52.298;13.686;2022-07-11T01:39:04;21.20;67.50
64705;DHT22;51131;52.298;13.686;2022-07-11T01:41:31;21.50;67.80
64705;DHT22;51131;52.298;13.686;2022-07-11T01:43:57;21.20;67.50
64705;DHT22;51131;52.298;13.686;2022-07-11T01:46:24;21.20;67.60
64705;DHT22;51131;52.298;13.686;2022-07-11T01:48:51;21.20;67.50
64705;DHT22;51131;52.298;13.686;2022-07-11T01:51:18;21.20;67.50
64705;DHT22;51131;52.298;13.686;2022-07-11T01:53:44;21.30;67.60
64705;DHT22;51131;52.298;13.686;2022-07-11T01:56:12;21.30;67.50
64705;DHT22;51131;52.298;13.686;2022-07-11T01:58:45;21.30;67.50
64705;DHT22;51131;52.298;13.686;2022-07-11T02:01:12;21.70;67.90
64705;DHT22;51131;52.298;13.686;2022-07-11T02:03:39;21.20;67.40
64705;DHT22;51131;52.298;13.686;2022-07-11T02:06:06;21.20;67.40
64705;DHT22;51131;52.298;13.686;2022-07-11T02:08:33;21.20;67.40
64705;DHT22;51131;52.298;13.686;2022-07-11T02:11:00;21.20;67.50
64705;DHT22;51131;52.298;13.686;2022-07-11T02:13:27;21.20;67.40
64705;DHT22;51131;52.298;13.686;2022-07-11T02:15:53;21.20;67.50
64705;DHT22;51131;52.298;13.686;2022-07-11T02:18:20;21.20;67.60
64705;DHT22;51131;52.298;13.686;2022-07-11T02:20:47;21.20;67.60
64705;DHT22;51131;52.298;13.686;2022-07-11T02:23:17;21.20;67.60
64705;DHT22;51131;52.298;13.686;2022-07-11T02:25:45;21.20;67.60
64705;DHT22;51131;52.298;13.686;2022-07-11T02:28:12;21.20;67.60
64705;DHT22;51131;52.298;13.686;2022-07-11T02:30:40;21.20;67.60
64705;DHT22;51131;52.298;13.686;2022-07-11T02:33:07;21.20;67.50
64705;DHT22;51131;52.298;13.686;2022-07-11T02:35:34;21.20;67.50
64705;DHT22;51131;52.298;13.686;2022-07-11T02:38:02;21.20;67.40
64705;DHT22;51131;52.298;13.686;2022-07-11T02:40:28;21.30;67.50
64705;DHT22;51131;52.298;13.686;2022-07-11T02:42:55;21.20;67.40
64705;DHT22;51131;52.298;13.686;2022-07-11T02:45:22;21.20;67.40
64705;DHT22;51131;52.298;13.686;2022-07-11T02:47:49;21.20;67.50
64705;DHT22;51131;52.298;13.686;2022-07-11T02:50:16;22.10;68.30
64705;DHT22;51131;52.298;13.686;2022-07-11T02:52:42;21.20;67.40
64705;DHT22;51131;52.298;13.686;2022-07-11T02:55:10;21.20;67.50
64705;DHT22;51131;52.298;13.686;2022-07-11T02:57:37;21.20;67.50
64705;DHT22;51131;52.298;13.686;2022-07-11T03:00:06;21.70;68.10
64705;DHT22;51131;52.298;13.686;2022-07-11T03:02:33;21.20;67.60
64705;DHT22;51131;52.298;13.686;2022-07-11T03:05:00;21.20;67.60
64705;DHT22;51131;52.298;13.686;2022-07-11T03:07:27;21.20;67.50
64705;DHT22;51131;52.298;13.686;2022-07-11T03:09:54;21.20;67.50
64705;DHT22;51131;52.298;13.686;2022-07-11T03:12:21;21.20;67.50
64705;DHT22;51131;52.298;13.686;2022-07-11T03:14:48;21.20;67.40
64705;DHT22;51131;52.298;13.686;2022-07-11T03:17:18;21.20;67.40
64705;DHT22;51131;52.298;13.686;2022-07-11T03:19:45;21.20;67.40
64705;DHT22;51131;52.298;13.686;2022-07-11T03:22:14;21.20;67.40
64705;DHT22;51131;52.298;13.686;2022-07-11T03:24:41;21.20;67.40
64705;DHT22;51131;52.298;13.686;2022-07-11T03:27:08;21.20;67.40
64705;DHT22;51131;52.298;13.686;2022-07-11T03:29:39;21.20;67.40
64705;DHT22;51131;52.298;13.686;2022-07-11T03:32:08;21.20;67.40
64705;DHT22;51131;52.298;13.686;2022-07-11T03:34:35;21.20;67.50
64705;DHT22;51131;52.298;13.686;2022-07-11T03:37:02;21.80;68.00
64705;DHT22;51131;52.298;13.686;2022-07-11T03:39:29;21.20;67.40
64705;DHT22;51131;52.298;13.686;2022-07-11T03:41:55;21.20;67.50
64705;DHT22;51131;52.298;13.686;2022-07-11T03:44:22;21.40;67.60
64705;DHT22;51131;52.298;13.686;2022-07-11T03:46:49;20.00;66.30
64705;DHT22;51131;52.298;13.686;2022-07-11T03:49:16;21.60;67.90
64705;DHT22;51131;52.298;13.686;2022-07-11T03:51:42;21.20;67.50
64705;DHT22;51131;52.298;13.686;2022-07-11T03:54:09;21.20;67.40
64705;DHT22;51131;52.298;13.686;2022-07-11T03:56:36;21.20;67.40
64705;DHT22;51131;52.298;13.686;2022-07-11T03:59:03;21.30;67.40
64705;DHT22;51131;52.298;13.686;2022-07-11T04:01:29;21.20;67.40
64705;DHT22;51131;52.298;13.686;2022-07-11T04:03:56;22.40;68.50
64705;DHT22;51131;52.298;13.686;2022-07-11T04:06:23;21.20;67.40
64705;DHT22;51131;52.298;13.686;2022-07-11T04:08:50;21.90;68.10
64705;DHT22;51131;52.298;13.686;2022-07-11T04:11:16;21.20;67.40
64705;DHT22;51131;52.298;13.686;2022-07-11T04:13:43;21.20;67.40
64705;DHT22;51131;52.298;13.686;2022-07-11T04:16:11;21.10;67.20
64705;DHT22;51131;52.298;13.686;2022-07-11T04:18:38;21.20;67.40
64705;DHT22;51131;52.298;13.686;2022-07-11T04:21:04;21.90;68.20
64705;DHT22;51131;52.298;13.686;2022-07-11T04:23:35;21.20;67.40
64705;DHT22;51131;52.298;13.686;2022-07-11T04:26:03;21.20;67.40
64705;DHT22;51131;52.298;13.686;2022-07-11T04:28:31;21.20;67.30
64705;DHT22;51131;52.298;13.686;2022-07-11T04:30:59;21.20;67.30
64705;DHT22;51131;52.298;13.686;2022-07-11T04:33:25;21.20;67.20
64705;DHT22;51131;52.298;13.686;2022-07-11T04:35:52;22.30;68.30
64705;DHT22;51131;52.298;13.686;2022-07-11T04:38:19;22.80;68.70
64705;DHT22;51131;52.298;13.686;2022-07-11T04:40:48;21.10;67.20
64705;DHT22;51131;52.298;13.686;2022-07-11T04:43:15;21.20;67.20
64705;DHT22;51131;52.298;13.686;2022-07-11T04:45:42;21.10;67.20
64705;DHT22;51131;52.298;13.686;2022-07-11T04:48:09;21.60;67.60
64705;DHT22;51131;52.298;13.686;2022-07-11T04:50:35;21.20;67.30
64705;DHT22;51131;52.298;13.686;2022-07-11T04:53:02;21.10;67.20
64705;DHT22;51131;52.298;13.686;2022-07-11T04:55:29;21.10;67.20
64705;DHT22;51131;52.298;13.686;2022-07-11T04:57:56;21.20;67.30
64705;DHT22;51131;52.298;13.686;2022-07-11T05:00:23;21.20;67.40
64705;DHT22;51131;52.298;13.686;2022-07-11T05:02:51;21.20;67.40
64705;DHT22;51131;52.298;13.686;2022-07-11T05:05:17;21.20;67.30
64705;DHT22;51131;52.298;13.686;2022-07-11T05:07:46;21.90;67.90
64705;DHT22;51131;52.298;13.686;2022-07-11T05:10:13;21.50;67.50
64705;DHT22;51131;52.298;13.686;2022-07-11T05:12:40;21.20;67.10
64705;DHT22;51131;52.298;13.686;2022-07-11T05:15:07;21.20;67.20
64705;DHT22;51131;52.298;13.686;2022-07-11T05:17:34;21.20;67.20
64705;DHT22;51131;52.298;13.686;2022-07-11T05:20:02;21.20;67.20
64705;DHT22;51131;52.298;13.686;2022-07-11T05:22:29;21.20;67.30
64705;DHT22;51131;52.298;13.686;2022-07-11T05:24:56;21.20;67.20
64705;DHT22;51131;52.298;13.686;2022-07-11T05:27:23;21.20;67.20
64705;DHT22;51131;52.298;13.686;2022-07-11T05:29:49;21.20;67.30
64705;DHT22;51131;52.298;13.686;2022-07-11T05:32:16;21.10;67.20
64705;DHT22;51131;52.298;13.686;2022-07-11T05:34:43;22.80;68.80
64705;DHT22;51131;52.298;13.686;2022-07-11T05:37:10;21.20;67.20
64705;DHT22;51131;52.298;13.686;2022-07-11T05:39:36;21.20;67.20
64705;DHT22;51131;52.298;13.686;2022-07-11T05:42:03;21.20;67.20
64705;DHT22;51131;52.298;13.686;2022-07-11T05:44:30;21.20;67.10
64705;DHT22;51131;52.298;13.686;2022-07-11T05:47:00;21.30;67.10
64705;DHT22;51131;52.298;13.686;2022-07-11T05:49:28;21.20;67.10
64705;DHT22;51131;52.298;13.686;2022-07-11T05:51:54;21.80;67.60
64705;DHT22;51131;52.298;13.686;2022-07-11T05:54:21;21.20;67.10
64705;DHT22;51131;52.298;13.686;2022-07-11T05:56:48;21.20;67.00
64705;DHT22;51131;52.298;13.686;2022-07-11T05:59:15;21.20;67.10
64705;DHT22;51131;52.298;13.686;2022-07-11T06:01:42;21.20;67.20
64705;DHT22;51131;52.298;13.686;2022-07-11T06:04:09;21.20;67.20
64705;DHT22;51131;52.298;13.686;2022-07-11T06:06:35;21.20;67.30
64705;DHT22;51131;52.298;13.686;2022-07-11T06:09:02;21.20;67.40
64705;DHT22;51131;52.298;13.686;2022-07-11T06:11:29;21.20;67.40
64705;DHT22;51131;52.298;13.686;2022-07-11T06:13:56;21.20;67.40
64705;DHT22;51131;52.298;13.686;2022-07-11T06:16:26;21.20;67.40
64705;DHT22;51131;52.298;13.686;2022-07-11T06:18:53;21.20;67.70
64705;DHT22;51131;52.298;13.686;2022-07-11T06:21:19;21.20;67.50
64705;DHT22;51131;52.298;13.686;2022-07-11T06:23:49;21.20;67.60
64705;DHT22;51131;52.298;13.686;2022-07-11T06:26:16;21.20;67.60
64705;DHT22;51131;52.298;13.686;2022-07-11T06:28:43;21.20;67.40
64705;DHT22;51131;52.298;13.686;2022-07-11T06:31:09;21.30;67.40
64705;DHT22;51131;52.298;13.686;2022-07-11T06:33:36;21.20;67.30
64705;DHT22;51131;52.298;13.686;2022-07-11T06:36:03;21.30;67.40
64705;DHT22;51131;52.298;13.686;2022-07-11T06:38:31;21.30;67.30
64705;DHT22;51131;52.298;13.686;2022-07-11T06:40:58;21.30;67.40
64705;DHT22;51131;52.298;13.686;2022-07-11T06:43:25;21.30;67.40
64705;DHT22;51131;52.298;13.686;2022-07-11T06:45:52;21.30;67.40
64705;DHT22;51131;52.298;13.686;2022-07-11T06:48:19;21.30;67.40
64705;DHT22;51131;52.298;13.686;2022-07-11T06:50:47;21.30;67.50
64705;DHT22;51131;52.298;13.686;2022-07-11T06:53:15;21.30;67.40
64705;DHT22;51131;52.298;13.686;2022-07-11T06:55:41;21.40;67.20
64705;DHT22;51131;52.298;13.686;2022-07-11T06:58:08;21.50;67.20
64705;DHT22;51131;52.298;13.686;2022-07-11T07:00:51;21.50;67.10
64705;DHT22;51131;52.298;13.686;2022-07-11T07:03:18;21.70;67.00
64705;DHT22;51131;52.298;13.686;2022-07-11T07:05:46;21.70;66.80
64705;DHT22;51131;52.298;13.686;2022-07-11T07:08:13;21.60;66.60
64705;DHT22;51131;52.298;13.686;2022-07-11T07:10:41;21.60;66.60
64705;DHT22;51131;52.298;13.686;2022-07-11T07:13:08;21.60;66.60
64705;DHT22;51131;52.298;13.686;2022-07-11T07:15:35;21.60;66.70
64705;DHT22;51131;52.298;13.686;2022-07-11T07:18:01;21.60;66.70
64705;DHT22;51131;52.298;13.686;2022-07-11T07:20:29;21.60;66.80
64705;DHT22;51131;52.298;13.686;2022-07-11T07:22:57;21.60;66.90
64705;DHT22;51131;52.298;13.686;2022-07-11T07:25:24;21.60;67.00
64705;DHT22;51131;52.298;13.686;2022-07-11T07:27:51;21.60;67.10
64705;DHT22;51131;52.298;13.686;2022-07-11T07:30:17;21.50;67.00
64705;DHT22;51131;52.298;13.686;2022-07-11T07:32:44;21.50;67.10
64705;DHT22;51131;52.298;13.686;2022-07-11T07:35:11;21.50;67.20
64705;DHT22;51131;52.298;13.686;2022-07-11T07:37:38;21.50;67.20
64705;DHT22;51131;52.298;13.686;2022-07-11T07:40:05;21.50;67.40
64705;DHT22;51131;52.298;13.686;2022-07-11T07:42:31;21.50;67.60
64705;DHT22;51131;52.298;13.686;2022-07-11T07:44:59;21.50;67.60
64705;DHT22;51131;52.298;13.686;2022-07-11T07:47:25;21.50;67.80
64705;DHT22;51131;52.298;13.686;2022-07-11T07:49:54;21.50;67.90
64705;DHT22;51131;52.298;13.686;2022-07-11T07:52:21;21.50;68.00
64705;DHT22;51131;52.298;13.686;2022-07-11T07:54:48;21.40;67.90
64705;DHT22;51131;52.298;13.686;2022-07-11T07:57:15;21.40;67.80
64705;DHT22;51131;52.298;13.686;2022-07-11T07:59:42;21.40;68.10
64705;DHT22;51131;52.298;13.686;2022-07-11T08:02:09;21.40;67.80
64705;DHT22;51131;52.298;13.686;2022-07-11T08:04:36;21.50;67.80
64705;DHT22;51131;52.298;13.686;2022-07-11T08:07:03;21.50;67.70
64705;DHT22;51131;52.298;13.686;2022-07-11T08:09:30;21.50;67.30
64705;DHT22;51131;52.298;13.686;2022-07-11T08:11:56;21.40;67.50
64705;DHT22;51131;52.298;13.686;2022-07-11T08:14:23;21.50;67.50
64705;DHT22;51131;52.298;13.686;2022-07-11T08:16:50;21.50;67.40
64705;DHT22;51131;52.298;13.686;2022-07-11T08:19:18;21.60;67.80
64705;DHT22;51131;52.298;13.686;2022-07-11T08:21:44;21.50;67.70
64705;DHT22;51131;52.298;13.686;2022-07-11T08:24:11;21.50;67.20
64705;DHT22;51131;52.298;13.686;2022-07-11T08:26:38;21.50;67.60
64705;DHT22;51131;52.298;13.686;2022-07-11T08:29:05;21.50;67.90
64705;DHT22;51131;52.298;13.686;2022-07-11T08:31:31;21.50;68.00
64705;DHT22;51131;52.298;13.686;2022-07-11T08:34:00;21.50;68.10
64705;DHT22;51131;52.298;13.686;2022-07-11T08:36:27;21.50;68.00
64705;DHT22;51131;52.298;13.686;2022-07-11T08:38:56;21.50;68.30
64705;DHT22;51131;52.298;13.686;2022-07-11T08:41:23;21.50;68.40
64705;DHT22;51131;52.298;13.686;2022-07-11T08:43:50;21.50;68.60
64705;DHT22;51131;52.298;13.686;2022-07-11T08:46:17;21.50;68.70
64705;DHT22;51131;52.298;13.686;2022-07-11T08:48:44;21.50;68.70
64705;DHT22;51131;52.298;13.686;2022-07-11T08:51:11;21.40;68.70
64705;DHT22;51131;52.298;13.686;2022-07-11T08:53:39;21.50;68.90
64705;DHT22;51131;52.298;13.686;2022-07-11T08:56:09;21.40;68.60
64705;DHT22;51131;52.298;13.686;2022-07-11T08:58:44;21.40;68.90
64705;DHT22;51131;52.298;13.686;2022-07-11T09:01:20;21.50;69.20
64705;DHT22;51131;52.298;13.686;2022-07-11T09:03:50;21.50;68.00
64705;DHT22;51131;52.298;13.686;2022-07-11T09:06:18;21.50;68.20
64705;DHT22;51131;52.298;13.686;2022-07-11T09:08:44;21.60;68.40
64705;DHT22;51131;52.298;13.686;2022-07-11T09:11:11;21.60;68.40
64705;DHT22;51131;52.298;13.686;2022-07-11T09:13:38;21.60;68.20
64705;DHT22;51131;52.298;13.686;2022-07-11T09:16:06;21.60;68.30
64705;DHT22;51131;52.298;13.686;2022-07-11T09:18:34;21.60;68.50
64705;DHT22;51131;52.298;13.686;2022-07-11T09:21:08;21.60;68.40
64705;DHT22;51131;52.298;13.686;2022-07-11T09:23:53;21.60;68.60
64705;DHT22;51131;52.298;13.686;2022-07-11T09:26:43;21.60;68.80
64705;DHT22;51131;52.298;13.686;2022-07-11T09:29:11;21.50;68.40
64705;DHT22;51131;52.298;13.686;2022-07-11T09:31:39;21.50;69.30
64705;DHT22;51131;52.298;13.686;2022-07-11T09:34:07;21.50;69.20
64705;DHT22;51131;52.298;13.686;2022-07-11T09:39:06;21.60;68.90
64705;DHT22;51131;52.298;13.686;2022-07-11T09:41:33;21.60;67.90
64705;DHT22;51131;52.298;13.686;2022-07-11T09:44:11;21.60;67.70
64705;DHT22;51131;52.298;13.686;2022-07-11T09:46:38;21.60;68.00
64705;DHT22;51131;52.298;13.686;2022-07-11T09:49:05;21.70;67.90
64705;DHT22;51131;52.298;13.686;2022-07-11T09:51:36;21.70;68.00
64705;DHT22;51131;52.298;13.686;2022-07-11T09:54:03;22.60;68.80
64705;DHT22;51131;52.298;13.686;2022-07-11T09:59:20;21.60;68.10
64705;DHT22;51131;52.298;13.686;2022-07-11T10:01:48;21.60;68.40
64705;DHT22;51131;52.298;13.686;2022-07-11T10:04:15;21.60;68.40
64705;DHT22;51131;52.298;13.686;2022-07-11T10:06:44;21.60;68.40
64705;DHT22;51131;52.298;13.686;2022-07-11T10:09:11;21.60;68.20
64705;DHT22;51131;52.298;13.686;2022-07-11T10:11:38;21.60;68.20
64705;DHT22;51131;52.298;13.686;2022-07-11T10:14:05;21.60;68.30
64705;DHT22;51131;52.298;13.686;2022-07-11T10:16:43;21.60;68.30
64705;DHT22;51131;52.298;13.686;2022-07-11T10:19:18;21.60;68.30
64705;DHT22;51131;52.298;13.686;2022-07-11T10:27:00;21.60;68.60
64705;DHT22;51131;52.298;13.686;2022-07-11T10:29:36;21.60;68.50
64705;DHT22;51131;52.298;13.686;2022-07-11T10:32:08;21.60;68.60
64705;DHT22;51131;52.298;13.686;2022-07-11T10:34:39;21.60;68.70
64705;DHT22;51131;52.298;13.686;2022-07-11T10:37:07;21.50;68.80
64705;DHT22;51131;52.298;13.686;2022-07-11T10:39:34;21.50;68.70
64705;DHT22;51131;52.298;13.686;2022-07-11T10:42:02;21.50;69.20
64705;DHT22;51131;52.298;13.686;2022-07-11T10:44:49;21.50;68.70
64705;DHT22;51131;52.298;13.686;2022-07-11T10:47:31;21.50;68.60
64705;DHT22;51131;52.298;13.686;2022-07-11T10:50:00;21.50;68.50
64705;DHT22;51131;52.298;13.686;2022-07-11T10:52:28;21.50;68.80
64705;DHT22;51131;52.298;13.686;2022-07-11T10:55:03;21.50;68.90
64705;DHT22;51131;52.298;13.686;2022-07-11T10:57:41;21.70;69.20
64705;DHT22;51131;52.298;13.686;2022-07-11T11:00:12;21.50;69.20
64705;DHT22;51131;52.298;13.686;2022-07-11T11:08:39;21.50;69.20
64705;DHT22;51131;52.298;13.686;2022-07-11T11:16:40;21.50;69.60
64705;DHT22;51131;52.298;13.686;2022-07-11T11:19:07;21.60;69.70
64705;DHT22;51131;52.298;13.686;2022-07-11T11:21:33;21.50;69.50
64705;DHT22;51131;52.298;13.686;2022-07-11T11:24:01;21.60;69.70
64705;DHT22;51131;52.298;13.686;2022-07-11T11:26:41;21.50;69.70
64705;DHT22;51131;52.298;13.686;2022-07-11T11:29:08;21.50;69.50
64705;DHT22;51131;52.298;13.686;2022-07-11T11:31:35;21.50;69.50
64705;DHT22;51131;52.298;13.686;2022-07-11T11:34:03;21.50;69.60
64705;DHT22;51131;52.298;13.686;2022-07-11T11:36:30;21.50;69.40
64705;DHT22;51131;52.298;13.686;2022-07-11T11:38:57;21.50;70.20
64705;DHT22;51131;52.298;13.686;2022-07-11T11:41:25;21.50;69.40
64705;DHT22;51131;52.298;13.686;2022-07-11T11:43:52;21.40;69.50
64705;DHT22;51131;52.298;13.686;2022-07-11T11:46:23;21.50;69.70
64705;DHT22;51131;52.298;13.686;2022-07-11T11:48:53;21.40;69.50
64705;DHT22;51131;52.298;13.686;2022-07-11T11:51:21;21.40;69.60
64705;DHT22;51131;52.298;13.686;2022-07-11T11:53:49;21.40;69.50
64705;DHT22;51131;52.298;13.686;2022-07-11T11:56:16;21.40;69.60
64705;DHT22;51131;52.298;13.686;2022-07-11T11:58:47;21.40;69.60
64705;DHT22;51131;52.298;13.686;2022-07-11T12:01:21;21.40;69.80
64705;DHT22;51131;52.298;13.686;2022-07-11T12:06:20;21.40;69.80
64705;DHT22;51131;52.298;13.686;2022-07-11T12:08:47;21.40;69.70
64705;DHT22;51131;52.298;13.686;2022-07-11T12:11:14;21.40;69.70
64705;DHT22;51131;52.298;13.686;2022-07-11T12:13:41;21.40;69.90
64705;DHT22;51131;52.298;13.686;2022-07-11T12:16:15;21.40;69.80
64705;DHT22;51131;52.298;13.686;2022-07-11T12:19:01;21.40;69.80
64705;DHT22;51131;52.298;13.686;2022-07-11T12:21:28;21.40;69.80
64705;DHT22;51131;52.298;13.686;2022-07-11T12:23:59;21.40;69.80
64705;DHT22;51131;52.298;13.686;2022-07-11T12:26:27;21.40;70.00
64705;DHT22;51131;52.298;13.686;2022-07-11T12:29:02;21.40;69.80
64705;DHT22;51131;52.298;13.686;2022-07-11T12:31:42;21.40;69.90
64705;DHT22;51131;52.298;13.686;2022-07-11T12:34:10;21.30;69.80
64705;DHT22;51131;52.298;13.686;2022-07-11T12:36:37;21.30;69.80
64705;DHT22;51131;52.298;13.686;2022-07-11T12:39:04;21.30;69.80
64705;DHT22;51131;52.298;13.686;2022-07-11T12:41:31;21.30;70.10
64705;DHT22;51131;52.298;13.686;2022-07-11T12:43:58;21.30;70.00
64705;DHT22;51131;52.298;13.686;2022-07-11T12:46:43;21.30;70.00
64705;DHT22;51131;52.298;13.686;2022-07-11T12:49:13;21.30;70.10
64705;DHT22;51131;52.298;13.686;2022-07-11T12:51:41;21.30;70.40
64705;DHT22;51131;52.298;13.686;2022-07-11T12:54:09;21.80;70.40
64705;DHT22;51131;52.298;13.686;2022-07-11T12:56:36;21.30;70.50
64705;DHT22;51131;52.298;13.686;2022-07-11T12:59:04;21.30;70.10
64705;DHT22;51131;52.298;13.686;2022-07-11T13:01:45;21.30;70.20
64705;DHT22;51131;52.298;13.686;2022-07-11T13:06:55;21.30;69.80
64705;DHT22;51131;52.298;13.686;2022-07-11T13:09:41;21.30;69.90
64705;DHT22;51131;52.298;13.686;2022-07-11T13:12:07;21.30;69.80
64705;DHT22;51131;52.298;13.686;2022-07-11T13:14:34;21.30;70.10
64705;DHT22;51131;52.298;13.686;2022-07-11T13:17:20;21.30;70.20
64705;DHT22;51131;52.298;13.686;2022-07-11T13:19:47;21.20;70.20
64705;DHT22;51131;52.298;13.686;2022-07-11T13:22:14;21.30;70.50
64705;DHT22;51131;52.298;13.686;2022-07-11T13:24:40;21.30;70.30
64705;DHT22;51131;52.298;13.686;2022-07-11T13:27:07;21.30;70.10
64705;DHT22;51131;52.298;13.686;2022-07-11T13:29:34;21.30;70.30
64705;DHT22;51131;52.298;13.686;2022-07-11T13:32:00;21.30;70.20
64705;DHT22;51131;52.298;13.686;2022-07-11T13:34:27;21.30;70.30
64705;DHT22;51131;52.298;13.686;2022-07-11T13:36:54;21.30;70.60
64705;DHT22;51131;52.298;13.686;2022-07-11T13:39:21;21.30;70.70
64705;DHT22;51131;52.298;13.686;2022-07-11T13:41:48;21.30;70.50
64705;DHT22;51131;52.298;13.686;2022-07-11T13:44:15;21.30;70.40
64705;DHT22;51131;52.298;13.686;2022-07-11T13:46:41;21.20;70.90
64705;DHT22;51131;52.298;13.686;2022-07-11T13:49:08;21.30;70.80
64705;DHT22;51131;52.298;13.686;2022-07-11T13:51:35;21.20;70.40
64705;DHT22;51131;52.298;13.686;2022-07-11T13:54:02;21.30;69.80
64705;DHT22;51131;52.298;13.686;2022-07-11T13:56:29;21.30;69.10
64705;DHT22;51131;52.298;13.686;2022-07-11T13:58:56;21.30;69.60
64705;DHT22;51131;52.298;13.686;2022-07-11T14:01:22;21.40;70.60
64705;DHT22;51131;52.298;13.686;2022-07-11T14:03:49;21.30;69.80
64705;DHT22;51131;52.298;13.686;2022-07-11T14:06:16;21.40;70.10
64705;DHT22;51131;52.298;13.686;2022-07-11T14:09:03;21.40;69.70
64705;DHT22;51131;52.298;13.686;2022-07-11T14:11:30;21.40;69.80
64705;DHT22;51131;52.298;13.686;2022-07-11T14:13:57;21.90;70.50
64705;DHT22;51131;52.298;13.686;2022-07-11T14:16:24;21.40;69.80
64705;DHT22;51131;52.298;13.686;2022-07-11T14:18:53;21.50;70.10
64705;DHT22;51131;52.298;13.686;2022-07-11T14:21:20;21.50;70.00
64705;DHT22;51131;52.298;13.686;2022-07-11T14:23:47;21.50;70.10
64705;DHT22;51131;52.298;13.686;2022-07-11T14:26:13;21.50;70.00
64705;DHT22;51131;52.298;13.686;2022-07-11T14:28:40;21.80;70.20
64705;DHT22;51131;52.298;13.686;2022-07-11T14:31:07;21.60;70.20
64705;DHT22;51131;52.298;13.686;2022-07-11T14:33:34;21.50;70.00
64705;DHT22;51131;52.298;13.686;2022-07-11T14:36:01;21.50;70.00
64705;DHT22;51131;52.298;13.686;2022-07-11T14:38:28;21.50;69.90
64705;DHT22;51131;52.298;13.686;2022-07-11T14:40:55;21.50;70.10
64705;DHT22;51131;52.298;13.686;2022-07-11T14:43:22;21.50;70.00
64705;DHT22;51131;52.298;13.686;2022-07-11T14:45:49;21.60;70.00
64705;DHT22;51131;52.298;13.686;2022-07-11T14:48:15;21.50;70.00
64705;DHT22;51131;52.298;13.686;2022-07-11T14:50:42;21.50;70.20
64705;DHT22;51131;52.298;13.686;2022-07-11T14:53:09;21.40;69.90
64705;DHT22;51131;52.298;13.686;2022-07-11T14:55:36;21.50;70.10
64705;DHT22;51131;52.298;13.686;2022-07-11T14:58:03;21.50;70.10
64705;DHT22;51131;52.298;13.686;2022-07-11T15:00:29;21.50;70.00
64705;DHT22;51131;52.298;13.686;2022-07-11T15:03:04;21.50;70.10
64705;DHT22;51131;52.298;13.686;2022-07-11T15:05:52;21.50;70.20
64705;DHT22;51131;52.298;13.686;2022-07-11T15:08:19;21.50;70.00
64705;DHT22;51131;52.298;13.686;2022-07-11T15:11:04;21.40;70.10
64705;DHT22;51131;52.298;13.686;2022-07-11T15:13:49;21.40;70.00
64705;DHT22;51131;52.298;13.686;2022-07-11T15:16:16;21.40;70.00
64705;DHT22;51131;52.298;13.686;2022-07-11T15:18:43;21.40;69.90
64705;DHT22;51131;52.298;13.686;2022-07-11T15:23:42;21.40;70.20
64705;DHT22;51131;52.298;13.686;2022-07-11T15:26:10;21.40;70.20
64705;DHT22;51131;52.298;13.686;2022-07-11T15:28:36;21.40;70.20
64705;DHT22;51131;52.298;13.686;2022-07-11T15:31:03;21.30;70.30
64705;DHT22;51131;52.298;13.686;2022-07-11T15:33:30;21.40;70.40
64705;DHT22;51131;52.298;13.686;2022-07-11T15:35:57;21.40;70.30
64705;DHT22;51131;52.298;13.686;2022-07-11T15:38:24;21.40;70.30
64705;DHT22;51131;52.298;13.686;2022-07-11T15:40:52;21.40;70.30
64705;DHT22;51131;52.298;13.686;2022-07-11T15:43:20;21.40;70.20
64705;DHT22;51131;52.298;13.686;2022-07-11T15:45:47;23.10;71.90
64705;DHT22;51131;52.298;13.686;2022-07-11T15:48:14;21.40;70.20
64705;DHT22;51131;52.298;13.686;2022-07-11T15:50:41;22.20;71.00